sensor_id;sensor_type;location;lat;lon;timestamp;pressure;altitude;pressure_sealevel;temperature;humidity
37078;BME280;22989;55.998;37.212;2023-03-07T00:01:40;-11298.94;;;-145.39;57.28
37078;BME280;22989;55.998;37.212;2023-03-07T00:04:06;-11298.94;;;-145.39;57.10
37078;BME280;22989;55.998;37.212;2023-03-07T00:06:31;-11298.94;;;-145.39;57.25
37078;BME280;22989;55.998;37.212;2023-03-07T00:08:59;-11298.94;;;-145.39;57.19
37078;BME280;22989;55.998;37.212;2023-03-07T00:11:25;-11298.94;;;-145.39;57.21
37078;BME280;22989;55.998;37.212;2023-03-07T00:13:52;-11298.94;;;-145.39;57.11
37078;BME280;22989;55.998;37.212;2023-03-07T00:16:20;-11298.94;;;-145.39;57.14
37078;BME280;22989;55.998;37.212;2023-03-07T00:18:46;-11298.94;;;-145.39;57.22
37078;BME280;22989;55.998;37.212;2023-03-07T00:21:14;-11298.94;;;-145.39;56.86
37078;BME280;22989;55.998;37.212;2023-03-07T00:23:42;-11298.94;;;-145.39;56.95
37078;BME280;22989;55.998;37.212;2023-03-07T00:26:19;-11298.94;;;-145.39;56.78
37078;BME280;22989;55.998;37.212;2023-03-07T00:28:48;-11298.94;;;-145.39;56.56
37078;BME280;22989;55.998;37.212;2023-03-07T00:31:14;-11298.94;;;-145.39;56.50
37078;BME280;22989;55.998;37.212;2023-03-07T00:33:40;-11298.94;;;-145.39;56.40
37078;BME280;22989;55.998;37.212;2023-03-07T00:36:13;-11298.94;;;-145.39;56.24
37078;BME280;22989;55.998;37.212;2023-03-07T00:38:39;-11298.94;;;-145.39;56.49
37078;BME280;22989;55.998;37.212;2023-03-07T00:41:11;-11298.94;;;-145.39;56.12
37078;BME280;22989;55.998;37.212;2023-03-07T00:43:38;-11298.94;;;-145.39;56.34
37078;BME280;22989;55.998;37.212;2023-03-07T00:46:05;-11298.94;;;-145.39;56.25
37078;BME280;22989;55.998;37.212;2023-03-07T00:48:36;-11298.94;;;-145.39;56.11
37078;BME280;22989;55.998;37.212;2023-03-07T00:51:02;-11298.94;;;-145.39;56.19
37078;BME280;22989;55.998;37.212;2023-03-07T00:53:28;-11298.94;;;-145.39;56.17
37078;BME280;22989;55.998;37.212;2023-03-07T00:56:15;-11298.94;;;-145.39;56.22
37078;BME280;22989;55.998;37.212;2023-03-07T00:58:43;-11298.94;;;-145.39;56.60
37078;BME280;22989;55.998;37.212;2023-03-07T01:01:10;-11298.94;;;-145.39;56.64
37078;BME280;22989;55.998;37.212;2023-03-07T01:03:36;-11298.94;;;-145.39;56.79
37078;BME280;22989;55.998;37.212;2023-03-07T01:06:07;-11298.94;;;-145.39;56.85
37078;BME280;22989;55.998;37.212;2023-03-07T01:08:34;-11298.94;;;-145.39;56.93
37078;BME280;22989;55.998;37.212;2023-03-07T01:11:04;-11298.94;;;-145.39;56.95
37078;BME280;22989;55.998;37.212;2023-03-07T01:13:31;-11298.94;;;-145.39;57.14
37078;BME280;22989;55.998;37.212;2023-03-07T01:16:09;-11298.94;;;-145.39;57.36
37078;BME280;22989;55.998;37.212;2023-03-07T01:18:35;-11298.94;;;-145.39;57.51
37078;BME280;22989;55.998;37.212;2023-03-07T01:21:01;-11298.94;;;-145.39;57.42
37078;BME280;22989;55.998;37.212;2023-03-07T01:23:27;-11298.94;;;-145.39;57.48
37078;BME280;22989;55.998;37.212;2023-03-07T01:25:52;-11298.94;;;-145.39;57.78
37078;BME280;22989;55.998;37.212;2023-03-07T01:28:18;-11298.94;;;-145.39;57.61
37078;BME280;22989;55.998;37.212;2023-03-07T01:30:44;-11298.94;;;-145.39;57.71
37078;BME280;22989;55.998;37.212;2023-03-07T01:33:09;-11298.94;;;-145.39;57.83
37078;BME280;22989;55.998;37.212;2023-03-07T01:35:37;-11298.94;;;-145.39;57.87
37078;BME280;22989;55.998;37.212;2023-03-07T01:38:03;-11298.94;;;-145.39;58.19
37078;BME280;22989;55.998;37.212;2023-03-07T01:40:30;-11298.94;;;-145.39;58.06
37078;BME280;22989;55.998;37.212;2023-03-07T01:48:17;-11298.94;;;-145.39;58.15
37078;BME280;22989;55.998;37.212;2023-03-07T01:50:43;-11298.94;;;-145.39;58.25
37078;BME280;22989;55.998;37.212;2023-03-07T01:53:09;-11298.94;;;-145.39;58.08
37078;BME280;22989;55.998;37.212;2023-03-07T01:55:36;-11298.94;;;-145.39;58.07
37078;BME280;22989;55.998;37.212;2023-03-07T01:58:11;-11298.94;;;-145.39;58.10
37078;BME280;22989;55.998;37.212;2023-03-07T02:00:39;-11298.94;;;-145.39;57.98
37078;BME280;22989;55.998;37.212;2023-03-07T02:05:42;-11298.94;;;-145.39;58.13
37078;BME280;22989;55.998;37.212;2023-03-07T02:08:11;-11298.94;;;-145.39;58.12
37078;BME280;22989;55.998;37.212;2023-03-07T02:10:38;-11298.94;;;-145.39;57.94
37078;BME280;22989;55.998;37.212;2023-03-07T02:13:04;-11298.94;;;-145.39;57.92
37078;BME280;22989;55.998;37.212;2023-03-07T02:15:32;-11298.94;;;-145.39;57.93
37078;BME280;22989;55.998;37.212;2023-03-07T02:17:58;-11298.94;;;-145.39;57.77
37078;BME280;22989;55.998;37.212;2023-03-07T02:22:56;-11298.94;;;-145.39;57.60
37078;BME280;22989;55.998;37.212;2023-03-07T02:25:43;-11298.94;;;-145.39;57.29
37078;BME280;22989;55.998;37.212;2023-03-07T02:28:13;-11298.94;;;-145.39;57.34
37078;BME280;22989;55.998;37.212;2023-03-07T02:31:00;-11298.94;;;-145.39;57.18
37078;BME280;22989;55.998;37.212;2023-03-07T02:33:30;-11298.94;;;-145.39;57.00
37078;BME280;22989;55.998;37.212;2023-03-07T02:36:07;-11298.94;;;-145.39;57.01
37078;BME280;22989;55.998;37.212;2023-03-07T02:38:38;-11298.94;;;-145.39;57.35
37078;BME280;22989;55.998;37.212;2023-03-07T02:41:08;-11298.94;;;-145.39;57.59
37078;BME280;22989;55.998;37.212;2023-03-07T02:43:35;-11298.94;;;-145.39;57.58
37078;BME280;22989;55.998;37.212;2023-03-07T02:46:02;-11298.94;;;-145.39;57.24
37078;BME280;22989;55.998;37.212;2023-03-07T02:48:27;-11298.94;;;-145.39;57.10
37078;BME280;22989;55.998;37.212;2023-03-07T02:50:53;-11298.94;;;-145.39;57.22
37078;BME280;22989;55.998;37.212;2023-03-07T02:53:19;-11298.94;;;-145.39;56.98
37078;BME280;22989;55.998;37.212;2023-03-07T02:55:45;-11298.94;;;-145.39;56.91
37078;BME280;22989;55.998;37.212;2023-03-07T02:58:10;-11298.94;;;-145.39;57.04
37078;BME280;22989;55.998;37.212;2023-03-07T03:00:36;-11298.94;;;-145.39;56.77
37078;BME280;22989;55.998;37.212;2023-03-07T03:03:02;-11298.94;;;-145.39;56.75
37078;BME280;22989;55.998;37.212;2023-03-07T03:05:28;-11298.94;;;-145.39;56.71
37078;BME280;22989;55.998;37.212;2023-03-07T03:07:54;-11298.94;;;-145.39;56.89
37078;BME280;22989;55.998;37.212;2023-03-07T03:10:19;-11298.94;;;-145.39;56.52
37078;BME280;22989;55.998;37.212;2023-03-07T03:12:45;-11298.94;;;-145.39;56.71
37078;BME280;22989;55.998;37.212;2023-03-07T03:15:12;-11298.94;;;-145.39;56.43
37078;BME280;22989;55.998;37.212;2023-03-07T03:17:38;-11298.94;;;-145.39;56.50
37078;BME280;22989;55.998;37.212;2023-03-07T03:20:05;-11298.94;;;-145.39;56.51
37078;BME280;22989;55.998;37.212;2023-03-07T03:22:39;-11298.94;;;-145.39;56.42
37078;BME280;22989;55.998;37.212;2023-03-07T03:25:08;-11298.94;;;-145.39;56.16
37078;BME280;22989;55.998;37.212;2023-03-07T03:27:36;-11298.94;;;-145.39;56.22
37078;BME280;22989;55.998;37.212;2023-03-07T03:30:04;-11298.94;;;-145.39;55.95
37078;BME280;22989;55.998;37.212;2023-03-07T03:32:33;-11298.94;;;-145.39;55.99
37078;BME280;22989;55.998;37.212;2023-03-07T03:34:58;-11298.94;;;-145.39;55.89
37078;BME280;22989;55.998;37.212;2023-03-07T03:37:25;-11298.94;;;-145.39;55.89
37078;BME280;22989;55.998;37.212;2023-03-07T03:39:55;-11298.94;;;-145.39;55.90
37078;BME280;22989;55.998;37.212;2023-03-07T03:42:21;-11298.94;;;-145.39;55.72
37078;BME280;22989;55.998;37.212;2023-03-07T03:44:47;-11298.94;;;-145.39;55.57
37078;BME280;22989;55.998;37.212;2023-03-07T03:47:14;-11298.94;;;-145.39;55.80
37078;BME280;22989;55.998;37.212;2023-03-07T03:49:40;-11298.94;;;-145.39;55.73
37078;BME280;22989;55.998;37.212;2023-03-07T03:52:06;-11298.94;;;-145.39;55.58
37078;BME280;22989;55.998;37.212;2023-03-07T03:54:32;-11298.94;;;-145.39;55.56
37078;BME280;22989;55.998;37.212;2023-03-07T03:56:57;-11298.94;;;-145.39;55.51
37078;BME280;22989;55.998;37.212;2023-03-07T03:59:23;-11298.94;;;-145.39;55.49
37078;BME280;22989;55.998;37.212;2023-03-07T04:01:49;-11298.94;;;-145.39;55.49
37078;BME280;22989;55.998;37.212;2023-03-07T04:04:17;-11298.94;;;-145.39;55.41
37078;BME280;22989;55.998;37.212;2023-03-07T04:06:43;-11298.94;;;-145.39;55.58
37078;BME280;22989;55.998;37.212;2023-03-07T04:09:09;-11298.94;;;-145.39;55.51
37078;BME280;22989;55.998;37.212;2023-03-07T04:11:38;-11298.94;;;-145.39;55.51
37078;BME280;22989;55.998;37.212;2023-03-07T04:14:04;-11298.94;;;-145.39;55.45
37078;BME280;22989;55.998;37.212;2023-03-07T04:16:30;-11298.94;;;-145.39;55.54
37078;BME280;22989;55.998;37.212;2023-03-07T04:18:56;-11298.94;;;-145.39;55.38
37078;BME280;22989;55.998;37.212;2023-03-07T04:21:22;-11298.94;;;-145.39;55.35
37078;BME280;22989;55.998;37.212;2023-03-07T04:23:51;-11298.94;;;-145.39;55.29
37078;BME280;22989;55.998;37.212;2023-03-07T04:26:21;-11298.94;;;-145.39;55.36
37078;BME280;22989;55.998;37.212;2023-03-07T04:28:47;-11298.94;;;-145.39;55.19
37078;BME280;22989;55.998;37.212;2023-03-07T04:31:24;-11298.94;;;-145.39;55.27
37078;BME280;22989;55.998;37.212;2023-03-07T04:33:50;-11298.94;;;-145.39;55.18
37078;BME280;22989;55.998;37.212;2023-03-07T04:36:17;-11298.94;;;-145.39;55.15
37078;BME280;22989;55.998;37.212;2023-03-07T04:38:45;-11298.94;;;-145.39;55.12
37078;BME280;22989;55.998;37.212;2023-03-07T04:41:19;-11298.94;;;-145.39;54.91
37078;BME280;22989;55.998;37.212;2023-03-07T04:43:47;-11298.94;;;-145.39;54.87
37078;BME280;22989;55.998;37.212;2023-03-07T04:46:14;-11298.94;;;-145.39;54.97
37078;BME280;22989;55.998;37.212;2023-03-07T04:48:40;-11298.94;;;-145.39;55.34
37078;BME280;22989;55.998;37.212;2023-03-07T04:51:07;-11298.94;;;-145.39;55.42
37078;BME280;22989;55.998;37.212;2023-03-07T04:53:32;-11298.94;;;-145.39;55.23
37078;BME280;22989;55.998;37.212;2023-03-07T04:55:59;-11298.94;;;-145.39;55.05
37078;BME280;22989;55.998;37.212;2023-03-07T04:58:26;-11298.94;;;-145.39;54.99
37078;BME280;22989;55.998;37.212;2023-03-07T05:00:52;-11298.94;;;-145.39;54.74
37078;BME280;22989;55.998;37.212;2023-03-07T05:03:18;-11298.94;;;-145.39;54.56
37078;BME280;22989;55.998;37.212;2023-03-07T05:05:43;-11298.94;;;-145.39;54.38
37078;BME280;22989;55.998;37.212;2023-03-07T05:08:09;-11298.94;;;-145.39;54.25
37078;BME280;22989;55.998;37.212;2023-03-07T05:10:36;-11298.94;;;-145.39;54.39
37078;BME280;22989;55.998;37.212;2023-03-07T05:13:03;-11298.94;;;-145.39;54.24
37078;BME280;22989;55.998;37.212;2023-03-07T05:15:29;-11298.94;;;-145.39;54.08
37078;BME280;22989;55.998;37.212;2023-03-07T05:17:54;-11298.94;;;-145.39;54.03
37078;BME280;22989;55.998;37.212;2023-03-07T05:20:21;-11298.94;;;-145.39;54.01
37078;BME280;22989;55.998;37.212;2023-03-07T05:22:48;-11298.94;;;-145.39;53.73
37078;BME280;22989;55.998;37.212;2023-03-07T05:25:14;-11298.94;;;-145.39;53.56
37078;BME280;22989;55.998;37.212;2023-03-07T05:27:40;-11298.94;;;-145.39;53.36
37078;BME280;22989;55.998;37.212;2023-03-07T05:30:07;-11298.94;;;-145.39;53.39
37078;BME280;22989;55.998;37.212;2023-03-07T05:32:33;-11298.94;;;-145.39;53.01
37078;BME280;22989;55.998;37.212;2023-03-07T05:34:59;-11298.94;;;-145.39;52.91
37078;BME280;22989;55.998;37.212;2023-03-07T05:37:25;-11298.94;;;-145.39;52.75
37078;BME280;22989;55.998;37.212;2023-03-07T05:39:51;-11298.94;;;-145.39;52.49
37078;BME280;22989;55.998;37.212;2023-03-07T05:42:17;-11298.94;;;-145.39;52.16
37078;BME280;22989;55.998;37.212;2023-03-07T05:44:43;-11298.94;;;-145.39;52.10
37078;BME280;22989;55.998;37.212;2023-03-07T05:47:09;-11298.94;;;-145.39;51.76
37078;BME280;22989;55.998;37.212;2023-03-07T05:49:35;-11298.94;;;-145.39;51.63
37078;BME280;22989;55.998;37.212;2023-03-07T05:52:00;-11298.94;;;-145.39;51.47
37078;BME280;22989;55.998;37.212;2023-03-07T05:54:26;-11298.94;;;-145.39;51.19
37078;BME280;22989;55.998;37.212;2023-03-07T05:56:53;-11298.94;;;-145.39;50.84
37078;BME280;22989;55.998;37.212;2023-03-07T05:59:19;-11298.94;;;-145.39;50.10
37078;BME280;22989;55.998;37.212;2023-03-07T06:01:47;-11298.94;;;-145.39;49.80
37078;BME280;22989;55.998;37.212;2023-03-07T06:04:13;-11298.94;;;-145.39;49.60
37078;BME280;22989;55.998;37.212;2023-03-07T06:06:38;-11298.94;;;-145.39;49.49
37078;BME280;22989;55.998;37.212;2023-03-07T06:09:04;-11298.94;;;-145.39;49.39
37078;BME280;22989;55.998;37.212;2023-03-07T06:11:31;-11298.94;;;-145.39;49.33
37078;BME280;22989;55.998;37.212;2023-03-07T06:13:57;-11298.94;;;-145.39;49.13
37078;BME280;22989;55.998;37.212;2023-03-07T06:16:23;-11298.94;;;-145.39;49.01
37078;BME280;22989;55.998;37.212;2023-03-07T06:18:49;-11298.94;;;-145.39;48.40
37078;BME280;22989;55.998;37.212;2023-03-07T06:21:16;-11298.94;;;-145.39;47.63
37078;BME280;22989;55.998;37.212;2023-03-07T06:23:44;-11298.94;;;-145.39;47.39
37078;BME280;22989;55.998;37.212;2023-03-07T06:26:14;-11298.94;;;-145.39;47.40
37078;BME280;22989;55.998;37.212;2023-03-07T06:28:42;-11298.94;;;-145.39;47.15
37078;BME280;22989;55.998;37.212;2023-03-07T06:31:11;-11298.94;;;-145.39;47.02
37078;BME280;22989;55.998;37.212;2023-03-07T06:33:37;-11298.94;;;-145.39;47.24
37078;BME280;22989;55.998;37.212;2023-03-07T06:36:06;-11298.94;;;-145.39;47.17
37078;BME280;22989;55.998;37.212;2023-03-07T06:38:32;-11298.94;;;-145.39;47.30
37078;BME280;22989;55.998;37.212;2023-03-07T06:41:00;-11298.94;;;-145.39;47.15
37078;BME280;22989;55.998;37.212;2023-03-07T06:43:26;-11298.94;;;-145.39;47.25
37078;BME280;22989;55.998;37.212;2023-03-07T06:45:52;-11298.94;;;-145.39;47.25
37078;BME280;22989;55.998;37.212;2023-03-07T06:48:20;-11298.94;;;-145.39;47.37
37078;BME280;22989;55.998;37.212;2023-03-07T06:50:46;-11298.94;;;-145.39;47.10
37078;BME280;22989;55.998;37.212;2023-03-07T06:53:12;-11298.94;;;-145.39;46.92
37078;BME280;22989;55.998;37.212;2023-03-07T06:55:37;-11298.94;;;-145.39;46.77
37078;BME280;22989;55.998;37.212;2023-03-07T06:58:03;-11298.94;;;-145.39;46.54
37078;BME280;22989;55.998;37.212;2023-03-07T07:00:29;-11298.94;;;-145.39;46.47
37078;BME280;22989;55.998;37.212;2023-03-07T07:02:55;-11298.94;;;-145.39;46.19
37078;BME280;22989;55.998;37.212;2023-03-07T07:05:20;-11298.94;;;-145.39;45.36
37078;BME280;22989;55.998;37.212;2023-03-07T07:07:46;-11298.94;;;-145.39;44.27
37078;BME280;22989;55.998;37.212;2023-03-07T07:10:12;-11298.94;;;-145.39;43.96
37078;BME280;22989;55.998;37.212;2023-03-07T07:12:38;-11298.94;;;-145.39;43.91
37078;BME280;22989;55.998;37.212;2023-03-07T07:15:04;-11298.94;;;-145.39;43.90
37078;BME280;22989;55.998;37.212;2023-03-07T07:17:33;-11298.94;;;-145.39;43.80
37078;BME280;22989;55.998;37.212;2023-03-07T07:20:05;-11298.94;;;-145.39;43.68
37078;BME280;22989;55.998;37.212;2023-03-07T07:22:32;-11298.94;;;-145.39;43.54
37078;BME280;22989;55.998;37.212;2023-03-07T07:24:58;-11298.94;;;-145.39;43.36
37078;BME280;22989;55.998;37.212;2023-03-07T07:27:24;-11298.94;;;-145.39;43.36
37078;BME280;22989;55.998;37.212;2023-03-07T07:29:51;-11298.94;;;-145.39;43.14
37078;BME280;22989;55.998;37.212;2023-03-07T07:32:17;-11298.94;;;-145.39;42.81
37078;BME280;22989;55.998;37.212;2023-03-07T07:34:42;-11298.94;;;-145.39;42.32
37078;BME280;22989;55.998;37.212;2023-03-07T07:37:08;-11298.94;;;-145.39;41.76
37078;BME280;22989;55.998;37.212;2023-03-07T07:39:34;-11298.94;;;-145.39;41.42
37078;BME280;22989;55.998;37.212;2023-03-07T07:42:00;-11298.94;;;-145.39;41.18
37078;BME280;22989;55.998;37.212;2023-03-07T07:44:29;-11298.94;;;-145.39;40.83
37078;BME280;22989;55.998;37.212;2023-03-07T07:46:57;-11298.94;;;-145.39;40.59
37078;BME280;22989;55.998;37.212;2023-03-07T07:49:23;-11298.94;;;-145.39;40.52
37078;BME280;22989;55.998;37.212;2023-03-07T07:51:49;-11298.94;;;-145.39;40.51
37078;BME280;22989;55.998;37.212;2023-03-07T07:54:14;-11298.94;;;-145.39;40.55
37078;BME280;22989;55.998;37.212;2023-03-07T07:56:40;-11298.94;;;-145.39;40.41
37078;BME280;22989;55.998;37.212;2023-03-07T07:59:06;-11298.94;;;-145.39;40.47
37078;BME280;22989;55.998;37.212;2023-03-07T08:01:31;-11298.94;;;-145.39;40.23
37078;BME280;22989;55.998;37.212;2023-03-07T08:03:57;-11298.94;;;-145.39;39.83
37078;BME280;22989;55.998;37.212;2023-03-07T08:06:26;-11298.94;;;-145.39;39.43
37078;BME280;22989;55.998;37.212;2023-03-07T08:08:52;-11298.94;;;-145.39;39.23
37078;BME280;22989;55.998;37.212;2023-03-07T08:11:19;-11298.94;;;-145.39;38.99
37078;BME280;22989;55.998;37.212;2023-03-07T08:13:45;-11298.94;;;-145.39;38.68
37078;BME280;22989;55.998;37.212;2023-03-07T08:16:15;-11298.94;;;-145.39;38.57
37078;BME280;22989;55.998;37.212;2023-03-07T08:18:41;-11298.94;;;-145.39;38.39
37078;BME280;22989;55.998;37.212;2023-03-07T08:21:07;-11298.94;;;-145.39;38.42
37078;BME280;22989;55.998;37.212;2023-03-07T08:23:34;-11298.94;;;-145.39;38.54
37078;BME280;22989;55.998;37.212;2023-03-07T08:26:01;-11298.94;;;-145.39;38.79
37078;BME280;22989;55.998;37.212;2023-03-07T08:28:27;-11298.94;;;-145.39;39.06
37078;BME280;22989;55.998;37.212;2023-03-07T08:30:53;-11298.94;;;-145.39;39.10
37078;BME280;22989;55.998;37.212;2023-03-07T08:33:18;-11298.94;;;-145.39;39.48
37078;BME280;22989;55.998;37.212;2023-03-07T08:35:44;-11298.94;;;-145.39;39.79
37078;BME280;22989;55.998;37.212;2023-03-07T08:38:09;-11298.94;;;-145.39;40.25
37078;BME280;22989;55.998;37.212;2023-03-07T08:40:35;-11298.94;;;-145.39;40.45
37078;BME280;22989;55.998;37.212;2023-03-07T08:43:01;-11298.94;;;-145.39;40.64
37078;BME280;22989;55.998;37.212;2023-03-07T08:45:26;-11298.94;;;-145.39;40.54
37078;BME280;22989;55.998;37.212;2023-03-07T08:47:53;-11298.94;;;-145.39;40.48
37078;BME280;22989;55.998;37.212;2023-03-07T08:50:20;-11298.94;;;-145.39;40.06
37078;BME280;22989;55.998;37.212;2023-03-07T08:52:46;-11298.94;;;-145.39;39.61
37078;BME280;22989;55.998;37.212;2023-03-07T08:55:12;-11298.94;;;-145.39;39.40
37078;BME280;22989;55.998;37.212;2023-03-07T08:57:37;-11298.94;;;-145.39;39.14
37078;BME280;22989;55.998;37.212;2023-03-07T09:00:03;-11298.94;;;-145.39;38.89
37078;BME280;22989;55.998;37.212;2023-03-07T09:02:32;-11298.94;;;-145.39;38.73
37078;BME280;22989;55.998;37.212;2023-03-07T09:04:58;-11298.94;;;-145.39;38.55
37078;BME280;22989;55.998;37.212;2023-03-07T09:07:23;-11298.94;;;-145.39;38.73
37078;BME280;22989;55.998;37.212;2023-03-07T09:09:49;-11298.94;;;-145.39;38.80
37078;BME280;22989;55.998;37.212;2023-03-07T09:12:15;-11298.94;;;-145.39;39.34
37078;BME280;22989;55.998;37.212;2023-03-07T09:14:40;-11298.94;;;-145.39;39.48
37078;BME280;22989;55.998;37.212;2023-03-07T09:17:06;-11298.94;;;-145.39;39.88
37078;BME280;22989;55.998;37.212;2023-03-07T09:19:31;-11298.94;;;-145.39;40.29
37078;BME280;22989;55.998;37.212;2023-03-07T09:21:57;-11298.94;;;-145.39;40.67
37078;BME280;22989;55.998;37.212;2023-03-07T09:24:22;-11298.94;;;-145.39;41.01
37078;BME280;22989;55.998;37.212;2023-03-07T09:26:48;-11298.94;;;-145.39;41.33
37078;BME280;22989;55.998;37.212;2023-03-07T09:29:14;-11298.94;;;-145.39;41.41
37078;BME280;22989;55.998;37.212;2023-03-07T09:31:39;-11298.94;;;-145.39;41.42
37078;BME280;22989;55.998;37.212;2023-03-07T09:34:05;-11298.94;;;-145.39;41.47
37078;BME280;22989;55.998;37.212;2023-03-07T09:36:31;-11298.94;;;-145.39;41.63
37078;BME280;22989;55.998;37.212;2023-03-07T09:38:56;-11298.94;;;-145.39;41.54
37078;BME280;22989;55.998;37.212;2023-03-07T09:50:48;-11298.94;;;-145.39;41.09
37078;BME280;22989;55.998;37.212;2023-03-07T09:53:22;-11298.94;;;-145.39;40.98
37078;BME280;22989;55.998;37.212;2023-03-07T09:55:50;-11298.94;;;-145.39;40.87
37078;BME280;22989;55.998;37.212;2023-03-07T09:58:20;-11298.94;;;-145.39;40.97
37078;BME280;22989;55.998;37.212;2023-03-07T10:00:55;-11298.94;;;-145.39;40.80
37078;BME280;22989;55.998;37.212;2023-03-07T10:06:45;-11298.94;;;-145.39;40.29
37078;BME280;22989;55.998;37.212;2023-03-07T10:09:18;-11298.94;;;-145.39;40.09
37078;BME280;22989;55.998;37.212;2023-03-07T10:28:29;-11298.94;;;-145.39;40.92
37078;BME280;22989;55.998;37.212;2023-03-07T10:31:09;-11298.94;;;-145.39;40.96
37078;BME280;22989;55.998;37.212;2023-03-07T10:33:39;-11298.94;;;-145.39;40.79
37078;BME280;22989;55.998;37.212;2023-03-07T10:36:13;-11298.94;;;-145.39;40.64
37078;BME280;22989;55.998;37.212;2023-03-07T10:41:16;-11298.94;;;-145.39;40.34
37078;BME280;22989;55.998;37.212;2023-03-07T10:43:45;-11298.94;;;-145.39;40.17
37078;BME280;22989;55.998;37.212;2023-03-07T10:46:20;-11298.94;;;-145.39;39.65
37078;BME280;22989;55.998;37.212;2023-03-07T10:49:13;-11298.94;;;-145.39;39.44
37078;BME280;22989;55.998;37.212;2023-03-07T10:54:31;-11298.94;;;-145.39;39.33
37078;BME280;22989;55.998;37.212;2023-03-07T10:59:32;-11298.94;;;-145.39;39.27
37078;BME280;22989;55.998;37.212;2023-03-07T11:01:59;-11298.94;;;-145.39;39.11
37078;BME280;22989;55.998;37.212;2023-03-07T11:04:29;-11298.94;;;-145.39;38.69
37078;BME280;22989;55.998;37.212;2023-03-07T11:09:52;-11298.94;;;-145.39;38.47
37078;BME280;22989;55.998;37.212;2023-03-07T11:12:20;-11298.94;;;-145.39;38.52
37078;BME280;22989;55.998;37.212;2023-03-07T11:14:47;-11298.94;;;-145.39;38.84
37078;BME280;22989;55.998;37.212;2023-03-07T11:17:24;-11298.94;;;-145.39;39.04
37078;BME280;22989;55.998;37.212;2023-03-07T11:19:56;-11298.94;;;-145.39;39.41
37078;BME280;22989;55.998;37.212;2023-03-07T11:22:32;-11298.94;;;-145.39;39.66
37078;BME280;22989;55.998;37.212;2023-03-07T11:27:38;-11298.94;;;-145.39;39.97
37078;BME280;22989;55.998;37.212;2023-03-07T11:30:28;-11298.94;;;-145.39;39.88
37078;BME280;22989;55.998;37.212;2023-03-07T11:35:48;-11298.94;;;-145.39;39.67
37078;BME280;22989;55.998;37.212;2023-03-07T11:41:30;-11298.94;;;-145.39;39.75
37078;BME280;22989;55.998;37.212;2023-03-07T12:01:12;-11298.94;;;-145.39;39.85
37078;BME280;22989;55.998;37.212;2023-03-07T12:20:30;-11298.94;;;-145.39;39.70
37078;BME280;22989;55.998;37.212;2023-03-07T12:23:17;-11298.94;;;-145.39;39.40
37078;BME280;22989;55.998;37.212;2023-03-07T12:25:49;-11298.94;;;-145.39;39.27
37078;BME280;22989;55.998;37.212;2023-03-07T12:31:10;-11298.94;;;-145.39;39.18
37078;BME280;22989;55.998;37.212;2023-03-07T12:34:10;-11298.94;;;-145.39;39.26
37078;BME280;22989;55.998;37.212;2023-03-07T12:39:26;-11298.94;;;-145.39;39.36
37078;BME280;22989;55.998;37.212;2023-03-07T12:47:09;-11298.94;;;-145.39;39.68
37078;BME280;22989;55.998;37.212;2023-03-07T12:58:25;-11298.94;;;-145.39;39.84
37078;BME280;22989;55.998;37.212;2023-03-07T13:01:01;-11298.94;;;-145.39;39.88
37078;BME280;22989;55.998;37.212;2023-03-07T13:03:57;-11298.94;;;-145.39;39.98
37078;BME280;22989;55.998;37.212;2023-03-07T13:06:25;-11298.94;;;-145.39;40.05
37078;BME280;22989;55.998;37.212;2023-03-07T13:08:53;-11298.94;;;-145.39;40.17
37078;BME280;22989;55.998;37.212;2023-03-07T13:11:24;-11298.94;;;-145.39;40.26
37078;BME280;22989;55.998;37.212;2023-03-07T13:14:05;-11298.94;;;-145.39;40.42
37078;BME280;22989;55.998;37.212;2023-03-07T13:22:03;-11298.94;;;-145.39;41.39
37078;BME280;22989;55.998;37.212;2023-03-07T13:24:35;-11298.94;;;-145.39;41.44
37078;BME280;22989;55.998;37.212;2023-03-07T13:27:13;-11298.94;;;-145.39;41.36
37078;BME280;22989;55.998;37.212;2023-03-07T13:53:23;-11298.94;;;-145.39;41.56
37078;BME280;22989;55.998;37.212;2023-03-07T13:56:03;-11298.94;;;-145.39;41.36
37078;BME280;22989;55.998;37.212;2023-03-07T14:01:18;-11298.94;;;-145.39;41.00
37078;BME280;22989;55.998;37.212;2023-03-07T14:03:49;-11298.94;;;-145.39;40.93
37078;BME280;22989;55.998;37.212;2023-03-07T14:06:40;-11298.94;;;-145.39;40.69
37078;BME280;22989;55.998;37.212;2023-03-07T14:09:05;-11298.94;;;-145.39;41.01
37078;BME280;22989;55.998;37.212;2023-03-07T14:17:02;-11298.94;;;-145.39;41.29
37078;BME280;22989;55.998;37.212;2023-03-07T14:25:15;-11298.94;;;-145.39;41.64
37078;BME280;22989;55.998;37.212;2023-03-07T14:27:58;-11298.94;;;-145.39;41.61
37078;BME280;22989;55.998;37.212;2023-03-07T14:30:26;-11298.94;;;-145.39;41.79
37078;BME280;22989;55.998;37.212;2023-03-07T14:32:52;-11298.94;;;-145.39;41.88
37078;BME280;22989;55.998;37.212;2023-03-07T14:35:40;-11298.94;;;-145.39;42.07
37078;BME280;22989;55.998;37.212;2023-03-07T14:38:26;-11298.94;;;-145.39;42.24
37078;BME280;22989;55.998;37.212;2023-03-07T14:41:21;-11298.94;;;-145.39;42.33
37078;BME280;22989;55.998;37.212;2023-03-07T14:46:52;-11298.94;;;-145.39;42.48
37078;BME280;22989;55.998;37.212;2023-03-07T14:50:06;-11298.94;;;-145.39;42.62
37078;BME280;22989;55.998;37.212;2023-03-07T14:52:34;-11298.94;;;-145.39;42.59
37078;BME280;22989;55.998;37.212;2023-03-07T14:55:01;-11298.94;;;-145.39;42.59
37078;BME280;22989;55.998;37.212;2023-03-07T15:05:35;-11298.94;;;-145.39;43.31
37078;BME280;22989;55.998;37.212;2023-03-07T15:08:02;-11298.94;;;-145.39;43.16
37078;BME280;22989;55.998;37.212;2023-03-07T15:10:40;-11298.94;;;-145.39;43.28
37078;BME280;22989;55.998;37.212;2023-03-07T15:13:36;-11298.94;;;-145.39;43.60
37078;BME280;22989;55.998;37.212;2023-03-07T15:16:10;-11298.94;;;-145.39;43.72